createdAt,value
2022-10-05T00:27:46.017Z,10.6
2022-10-05T00:37:48.601Z,10.9
2022-10-05T00:47:50.569Z,11.1
2022-10-05T01:07:54.734Z,11
2022-10-05T01:17:56.761Z,11
2022-10-05T01:27:59.235Z,11
2022-10-05T01:48:03.568Z,11.1
2022-10-05T01:58:06.179Z,11.3
2022-10-05T02:08:07.958Z,11.6
2022-10-05T02:18:09.587Z,11.6
2022-10-05T02:28:11.252Z,11.5
2022-10-05T02:38:13.748Z,11.4
2022-10-05T02:48:16.025Z,11.6
2022-10-05T02:58:18.303Z,11.8
2022-10-05T03:08:20.495Z,11.9
2022-10-05T03:18:23.373Z,11.8
2022-10-05T03:28:24.340Z,11.8
2022-10-05T03:38:26.255Z,11.8
2022-10-05T03:58:30.172Z,11.8
2022-10-05T04:08:32.080Z,11.6
2022-10-05T04:18:34.134Z,11.5
2022-10-05T04:28:36.322Z,11.5
2022-10-05T04:38:38.096Z,11.6
2022-10-05T04:48:40.509Z,11.8
2022-10-05T04:58:42.820Z,12.1
2022-10-05T05:08:44.525Z,12.3
2022-10-05T05:18:46.918Z,12.5
2022-10-05T05:28:49.478Z,12.6
2022-10-05T05:38:51.386Z,12.8
2022-10-05T05:48:53.207Z,12.8
2022-10-05T05:58:54.876Z,12.9
2022-10-05T06:08:57.284Z,13
2022-10-05T06:18:59.220Z,13.1
2022-10-05T06:29:01.742Z,13.3
2022-10-05T06:39:04.051Z,13.4
2022-10-05T06:49:06.639Z,13.6
2022-10-05T06:59:08.458Z,13.7
2022-10-05T07:09:10.620Z,13.9
2022-10-05T07:19:12.616Z,14.2
2022-10-05T07:29:15.065Z,14.3
2022-10-05T07:39:17.169Z,14.4
2022-10-05T07:49:19.374Z,14.4
2022-10-05T07:59:21.871Z,14.5
2022-10-05T08:09:23.807Z,14.6
2022-10-05T08:19:26.368Z,14.7
2022-10-05T08:29:28.847Z,14.9
2022-10-05T08:39:31.042Z,15.1
2022-10-05T08:49:35.258Z,15.3
2022-10-05T08:59:35.353Z,15.4
2022-10-05T09:09:37.104Z,15.6
2022-10-05T09:19:39.480Z,15.7
2022-10-05T09:29:41.130Z,15.8
2022-10-05T09:39:42.937Z,16
2022-10-05T09:49:45.025Z,16.2
2022-10-05T09:59:47.156Z,16.2
2022-10-05T10:19:51.178Z,16.7
2022-10-05T10:29:53.615Z,16.6
2022-10-05T10:39:55.887Z,16.8
2022-10-05T10:49:58.337Z,16.8
2022-10-05T11:00:00.719Z,16.8
2022-10-05T11:10:03.252Z,16.8
2022-10-05T11:20:05.790Z,17
2022-10-05T11:30:07.975Z,17.3
2022-10-05T11:40:09.915Z,17.7
2022-10-05T11:50:12.013Z,18.4
2022-10-05T12:00:14.514Z,18.3
2022-10-05T12:10:16.934Z,18.1
2022-10-05T12:20:18.727Z,18.6
2022-10-05T12:30:20.910Z,18.3
2022-10-05T12:40:22.973Z,18.5
2022-10-05T12:50:24.913Z,18.7
2022-10-05T13:20:31.562Z,19.4
2022-10-05T13:30:33.784Z,19.7
2022-10-05T13:50:37.584Z,20
2022-10-05T14:00:39.994Z,20.2
2022-10-05T14:10:41.825Z,20.5
2022-10-05T14:20:44.444Z,20.4
2022-10-05T14:30:51.453Z,20.6
2022-10-05T14:40:48.924Z,20.5
2022-10-05T15:00:53.522Z,20.5
2022-10-05T15:10:56.109Z,20.2
2022-10-05T15:31:07.323Z,20
2022-10-05T15:41:09.478Z,19.8
2022-10-05T15:51:11.344Z,19.6
2022-10-05T16:01:13.058Z,19.4
2022-10-05T16:11:18.334Z,19.3
2022-10-05T16:21:17.406Z,19.2
2022-10-05T16:31:19.452Z,19
2022-10-05T16:41:21.824Z,18.8
2022-10-05T16:51:23.864Z,18.7
2022-10-05T17:01:25.956Z,18.5
2022-10-05T17:11:28.017Z,18.8
2022-10-05T17:21:30.018Z,18.9
2022-10-05T17:31:32.445Z,18.6
2022-10-05T17:41:34.396Z,18.2
2022-10-05T17:51:36.776Z,18.1
2022-10-05T18:01:38.624Z,18
2022-10-05T18:11:41.011Z,17.9
2022-10-05T18:21:43.518Z,17.8
2022-10-05T18:31:45.903Z,17.8
2022-10-05T18:41:48.445Z,17.7
2022-10-05T18:51:52.048Z,17.7
2022-10-05T19:01:53.426Z,17.7
2022-10-05T19:11:55.045Z,17.8
2022-10-05T19:21:57.547Z,17.8
2022-10-05T19:31:59.466Z,17.8
2022-10-05T19:42:01.938Z,17.7
2022-10-05T19:52:04.096Z,17.9
2022-10-05T20:02:06.101Z,17.9
2022-10-05T20:12:08.128Z,18
2022-10-05T20:22:10.348Z,17.9
2022-10-05T20:32:12.334Z,18
2022-10-05T20:42:14.309Z,17.9
2022-10-05T20:52:16.933Z,17.9
2022-10-05T21:02:19.028Z,18
2022-10-05T21:12:20.866Z,18
2022-10-05T21:22:22.934Z,18
2022-10-05T21:42:26.832Z,18
2022-10-05T21:52:28.743Z,17.8
2022-10-05T22:02:30.726Z,17.9
2022-10-05T22:12:33.309Z,17.7
2022-10-05T22:22:35.382Z,17.6
2022-10-05T22:32:37.026Z,17.3
2022-10-05T22:42:39.304Z,16.8
2022-10-05T22:52:40.972Z,16.6
2022-10-05T23:02:43.275Z,16.5
2022-10-05T23:12:45.708Z,16
2022-10-05T23:22:47.750Z,14.2
2022-10-05T23:32:50.409Z,13.6
2022-10-05T23:42:52.122Z,13.3
2022-10-05T23:52:54.514Z,13.1
